Vida, Montana
Current Conditions -  °F | °C
As of 7:53 AM on Thursday 30 Oct 2014 (Local Time) from KOLF Reporting Station
Overcast Overcast  
Wind Chill: 32°   Ceiling: 1400
Heat Index: 37°   Visibility: 10mi
Dew Point: 31°   Wind: 7mph
Humidity: 79%   Direction: 30°NNE
Pressure: 30.34"   Gusts: NA
Location:  47.83°N, 105.49°W
Report Text: KOLF 301353Z AUTO 03006KT 10SM OVC014 03/M01 A3034 RMK AO2 SLP292 T00281006
Loading
Personal Weather Stations






























Interactive Weather Map
Tropical Storm Tracking
New forecast layout! Learn more

10-Day Weather Forecast

Advertisements
Track Severe Weather on mobile